createdAt,value
2019-03-29T00:01:12.030Z,6.50
2019-03-29T00:03:40.442Z,6.40
2019-03-29T00:06:08.851Z,6.40
2019-03-29T00:08:37.263Z,6.40
2019-03-29T00:11:05.699Z,6.30
2019-03-29T00:13:34.136Z,6.30
2019-03-29T00:16:02.535Z,6.20
2019-03-29T00:18:30.958Z,6.20
2019-03-29T00:20:59.394Z,6.20
2019-03-29T00:23:27.809Z,6.20
2019-03-29T00:25:56.234Z,6.10
2019-03-29T00:28:24.666Z,6.10
2019-03-29T00:30:58.847Z,6.10
2019-03-29T00:33:27.566Z,6.10
2019-03-29T00:35:56.006Z,6.10
2019-03-29T00:38:24.421Z,6.10
2019-03-29T00:40:58.998Z,6.10
2019-03-29T00:43:27.688Z,6.00
2019-03-29T00:45:56.080Z,6.00
2019-03-29T00:48:24.689Z,6.00
2019-03-29T00:50:53.087Z,6.00
2019-03-29T00:53:21.494Z,5.90
2019-03-29T00:55:49.927Z,5.90
2019-03-29T00:58:18.351Z,5.90
2019-03-29T01:00:54.041Z,5.80
2019-03-29T01:03:22.519Z,5.80
2019-03-29T01:05:50.959Z,5.80
2019-03-29T01:08:19.534Z,5.80
2019-03-29T01:10:58.011Z,5.80
2019-03-29T01:13:26.402Z,5.70
2019-03-29T01:15:54.823Z,5.80
2019-03-29T01:18:23.255Z,5.70
2019-03-29T01:23:40.470Z,5.80
2019-03-29T01:26:08.850Z,5.70
2019-03-29T01:28:37.956Z,5.60
2019-03-29T01:31:07.129Z,5.60
2019-03-29T01:33:35.555Z,5.60
2019-03-29T01:36:03.963Z,5.60
2019-03-29T01:38:32.726Z,5.50
2019-03-29T01:41:01.664Z,5.50
2019-03-29T01:43:30.089Z,5.50
2019-03-29T01:45:58.520Z,5.40
2019-03-29T01:48:26.943Z,5.40
2019-03-29T01:50:58.630Z,5.40
2019-03-29T01:53:27.059Z,5.40
2019-03-29T01:55:55.491Z,5.30
2019-03-29T01:58:24.369Z,5.30
2019-03-29T02:00:57.061Z,5.30
2019-03-29T02:03:25.486Z,5.30
2019-03-29T02:05:53.958Z,5.30
2019-03-29T02:10:47.070Z,5.30
2019-03-29T02:13:15.546Z,5.20
2019-03-29T02:15:44.135Z,5.10
2019-03-29T02:18:13.306Z,5.20
2019-03-29T02:20:44.880Z,5.10
2019-03-29T02:25:40.858Z,5.10
2019-03-29T02:28:09.296Z,5.10
2019-03-29T02:30:37.794Z,5.10
2019-03-29T02:33:06.203Z,5.00
2019-03-29T02:35:34.625Z,5.00
2019-03-29T02:38:03.045Z,5.00
2019-03-29T02:40:31.623Z,4.90
2019-03-29T02:43:00.037Z,4.90
2019-03-29T02:45:28.555Z,4.90
2019-03-29T02:47:58.059Z,4.80
2019-03-29T02:50:26.486Z,4.90
2019-03-29T02:52:54.884Z,4.80
2019-03-29T02:55:23.321Z,4.80
2019-03-29T02:57:51.746Z,4.80
2019-03-29T03:00:21.035Z,4.80
2019-03-29T03:02:49.444Z,4.70
2019-03-29T03:05:17.861Z,4.70
2019-03-29T03:07:46.252Z,4.70
2019-03-29T03:10:15.042Z,4.60
2019-03-29T03:12:43.519Z,4.60
2019-03-29T03:15:12.357Z,4.60
2019-03-29T03:17:40.918Z,4.50
2019-03-29T03:20:30.320Z,4.50
2019-03-29T03:22:58.872Z,4.50
2019-03-29T03:25:27.281Z,4.60
2019-03-29T03:27:56.246Z,4.60
2019-03-29T03:30:24.726Z,4.50
2019-03-29T03:32:53.148Z,4.50
2019-03-29T03:35:21.559Z,4.50
2019-03-29T03:37:49.991Z,4.40
2019-03-29T03:40:18.482Z,4.40
2019-03-29T03:42:46.904Z,4.40
2019-03-29T03:45:15.387Z,4.40
2019-03-29T03:47:43.812Z,4.40
2019-03-29T03:50:33.107Z,4.40
2019-03-29T03:53:01.991Z,4.40
2019-03-29T03:55:31.760Z,4.40
2019-03-29T03:58:00.630Z,4.40
2019-03-29T04:00:32.095Z,4.40
2019-03-29T04:03:00.517Z,4.40
2019-03-29T04:05:28.942Z,4.40
2019-03-29T04:07:57.475Z,4.50
2019-03-29T04:10:25.878Z,4.50
2019-03-29T04:12:54.306Z,4.50
2019-03-29T04:15:22.702Z,4.50
2019-03-29T04:17:51.146Z,4.50
2019-03-29T04:20:19.558Z,4.50
2019-03-29T04:22:47.999Z,4.40
2019-03-29T04:25:16.395Z,4.40
2019-03-29T04:27:44.821Z,4.40
2019-03-29T04:30:13.387Z,4.50
2019-03-29T04:32:41.816Z,4.50
2019-03-29T04:35:10.295Z,4.50
2019-03-29T04:37:38.750Z,4.50
2019-03-29T04:40:08.859Z,4.50
2019-03-29T04:42:37.594Z,4.60
2019-03-29T04:45:06.643Z,4.70
2019-03-29T04:47:35.080Z,4.80
2019-03-29T04:50:04.832Z,4.80
2019-03-29T04:52:33.284Z,4.90
2019-03-29T04:55:01.692Z,5.00
2019-03-29T04:57:30.254Z,5.10
2019-03-29T04:59:58.658Z,5.20
2019-03-29T05:02:27.108Z,5.20
2019-03-29T05:04:55.526Z,5.10
2019-03-29T05:07:23.947Z,5.10
2019-03-29T05:09:52.354Z,5.10
2019-03-29T05:12:20.783Z,5.10
2019-03-29T05:14:49.231Z,5.00
2019-03-29T05:17:17.711Z,4.90
2019-03-29T05:19:46.104Z,4.70
2019-03-29T05:22:14.546Z,4.60
2019-03-29T05:24:42.963Z,4.60
2019-03-29T05:27:11.416Z,4.50
2019-03-29T05:29:39.822Z,4.50
2019-03-29T05:32:08.262Z,4.40
2019-03-29T05:34:36.674Z,4.30
2019-03-29T05:37:05.098Z,4.20
2019-03-29T05:39:33.514Z,4.20
2019-03-29T05:42:01.932Z,4.20
2019-03-29T05:44:30.369Z,4.20
2019-03-29T05:46:58.790Z,4.40
2019-03-29T05:49:27.244Z,4.60
2019-03-29T05:51:55.723Z,4.50
2019-03-29T05:54:24.134Z,4.60
2019-03-29T05:56:52.589Z,4.60
2019-03-29T05:59:40.331Z,4.60
2019-03-29T06:02:08.763Z,4.80
2019-03-29T06:04:37.182Z,4.90
2019-03-29T06:07:05.622Z,4.90
2019-03-29T06:09:35.125Z,5.00
2019-03-29T06:12:03.639Z,5.10
2019-03-29T06:14:32.044Z,5.00
2019-03-29T06:17:00.488Z,5.00
2019-03-29T06:19:28.898Z,5.10
2019-03-29T06:21:57.330Z,5.20
2019-03-29T06:24:25.793Z,5.40
2019-03-29T06:26:54.246Z,5.60
2019-03-29T06:29:22.653Z,5.70
2019-03-29T06:31:51.050Z,5.80
2019-03-29T06:34:19.485Z,6.10
2019-03-29T06:36:48.733Z,6.20
2019-03-29T06:39:17.558Z,6.50
2019-03-29T06:41:47.611Z,6.90
2019-03-29T06:44:16.037Z,7.10
2019-03-29T06:46:44.634Z,7.40
2019-03-29T06:49:13.044Z,7.50
2019-03-29T06:51:41.484Z,7.90
2019-03-29T06:54:09.870Z,8.70
2019-03-29T06:56:38.363Z,9.80
2019-03-29T06:59:06.802Z,11.00
2019-03-29T07:01:35.227Z,12.10
2019-03-29T07:04:03.664Z,13.40
2019-03-29T07:06:32.088Z,14.30
2019-03-29T07:09:00.596Z,15.00
2019-03-29T07:11:29.000Z,15.20
2019-03-29T07:13:58.228Z,15.60
2019-03-29T07:16:26.764Z,16.40
2019-03-29T07:18:55.197Z,17.20
2019-03-29T07:21:23.655Z,18.10
2019-03-29T07:23:52.137Z,18.80
2019-03-29T07:26:20.540Z,19.70
2019-03-29T07:28:48.981Z,19.90
2019-03-29T07:31:17.447Z,20.90
2019-03-29T07:33:45.862Z,21.10
2019-03-29T07:36:15.175Z,21.30
2019-03-29T07:38:43.708Z,21.60
2019-03-29T07:41:12.233Z,22.20
2019-03-29T07:43:40.634Z,23.10
2019-03-29T07:46:09.079Z,23.50
2019-03-29T07:48:40.332Z,23.70
2019-03-29T07:51:07.651Z,24.40
2019-03-29T07:53:36.184Z,25.60
2019-03-29T07:56:04.651Z,26.70
2019-03-29T07:58:33.074Z,27.30
2019-03-29T08:01:01.522Z,27.90
2019-03-29T08:03:30.139Z,27.90
2019-03-29T08:05:58.538Z,27.60
2019-03-29T08:08:32.249Z,27.90
2019-03-29T08:10:59.206Z,28.70
2019-03-29T08:13:27.857Z,28.90
2019-03-29T08:15:56.269Z,29.00
2019-03-29T08:18:24.843Z,28.70
2019-03-29T08:20:53.274Z,29.40
2019-03-29T08:23:21.751Z,29.90
2019-03-29T08:25:50.174Z,30.10
2019-03-29T08:28:18.610Z,30.80
2019-03-29T08:30:47.039Z,30.50
2019-03-29T08:33:15.478Z,31.10
2019-03-29T08:35:43.887Z,31.40
2019-03-29T08:38:12.347Z,30.60
2019-03-29T08:40:40.771Z,30.50
2019-03-29T08:43:09.226Z,30.90
2019-03-29T08:45:37.648Z,31.20
2019-03-29T08:48:06.909Z,30.70
2019-03-29T08:50:35.395Z,29.40
2019-03-29T08:53:03.845Z,28.00
2019-03-29T08:55:45.068Z,26.50
2019-03-29T08:58:02.445Z,25.20
2019-03-29T09:00:32.008Z,24.10
2019-03-29T09:03:00.654Z,22.40
2019-03-29T09:05:29.183Z,21.20
2019-03-29T09:07:58.962Z,20.70
2019-03-29T09:10:27.772Z,20.10
2019-03-29T09:12:56.233Z,19.60
2019-03-29T09:15:24.634Z,19.10
2019-03-29T09:17:53.075Z,18.70
2019-03-29T09:20:21.579Z,18.30
2019-03-29T09:22:49.997Z,17.90
2019-03-29T09:25:21.046Z,17.50
2019-03-29T09:27:48.722Z,17.00
2019-03-29T09:30:17.490Z,16.80
2019-03-29T09:32:45.926Z,16.40
2019-03-29T09:35:14.497Z,16.00
2019-03-29T09:37:42.938Z,15.80
2019-03-29T09:40:13.839Z,15.90
2019-03-29T09:42:42.092Z,16.00
2019-03-29T09:45:10.733Z,15.60
2019-03-29T09:47:40.775Z,15.70
2019-03-29T09:50:10.543Z,15.70
2019-03-29T09:52:39.292Z,15.80
2019-03-29T09:55:08.316Z,15.60
2019-03-29T09:57:38.146Z,15.60
2019-03-29T10:00:19.187Z,15.60
2019-03-29T10:02:38.680Z,15.70
2019-03-29T10:05:07.346Z,15.70
2019-03-29T10:07:35.788Z,15.50
2019-03-29T10:10:05.737Z,15.60
2019-03-29T10:12:43.325Z,15.50
2019-03-29T10:15:05.782Z,15.50
2019-03-29T10:17:34.226Z,15.40
2019-03-29T10:20:02.715Z,15.30
2019-03-29T10:22:31.145Z,15.30
2019-03-29T10:25:01.968Z,15.30
2019-03-29T10:27:29.731Z,15.40
2019-03-29T10:29:58.137Z,15.50
2019-03-29T10:32:29.261Z,15.60
2019-03-29T10:34:57.661Z,15.60
2019-03-29T10:37:26.098Z,15.60
2019-03-29T10:39:54.565Z,15.60
2019-03-29T10:42:22.963Z,15.50
2019-03-29T10:44:51.404Z,15.50
2019-03-29T10:47:20.302Z,15.50
2019-03-29T10:49:48.703Z,15.40
2019-03-29T10:52:17.108Z,15.40
2019-03-29T10:54:45.511Z,15.20
2019-03-29T10:57:13.920Z,15.30
2019-03-29T10:59:42.340Z,15.30
2019-03-29T11:02:10.828Z,15.30
2019-03-29T11:04:39.235Z,15.40
2019-03-29T11:07:07.724Z,15.50
2019-03-29T11:09:37.126Z,15.60
2019-03-29T11:12:05.719Z,15.60
2019-03-29T11:14:34.159Z,15.60
2019-03-29T11:17:02.576Z,15.60
2019-03-29T11:19:31.019Z,15.70
2019-03-29T11:21:59.471Z,15.80
2019-03-29T11:24:27.935Z,16.10
2019-03-29T11:26:56.355Z,16.20
2019-03-29T11:29:24.771Z,16.20
2019-03-29T11:31:53.207Z,16.20
2019-03-29T11:34:21.680Z,16.20
2019-03-29T11:36:52.550Z,16.30
2019-03-29T11:39:20.356Z,16.20
2019-03-29T11:41:48.752Z,16.10
2019-03-29T11:44:17.189Z,16.20
2019-03-29T11:46:45.633Z,16.30
2019-03-29T11:49:14.242Z,16.30
2019-03-29T11:51:42.663Z,16.40
2019-03-29T11:54:11.087Z,16.50
2019-03-29T11:56:39.524Z,16.40
2019-03-29T11:59:07.962Z,16.20
2019-03-29T12:01:36.363Z,16.00
2019-03-29T12:04:05.037Z,16.20
2019-03-29T12:06:33.482Z,16.30
2019-03-29T12:09:01.888Z,16.30
2019-03-29T12:11:30.334Z,16.20
2019-03-29T12:13:58.735Z,16.20
2019-03-29T12:16:27.167Z,16.20
2019-03-29T12:18:55.576Z,16.20
2019-03-29T12:21:24.010Z,16.10
2019-03-29T12:23:52.447Z,16.10
2019-03-29T12:26:20.880Z,16.10
2019-03-29T12:28:49.318Z,16.20
2019-03-29T12:31:17.726Z,16.20
2019-03-29T12:33:46.135Z,16.20
2019-03-29T12:36:14.551Z,16.20
2019-03-29T12:38:42.974Z,16.20
2019-03-29T12:41:11.422Z,16.20
2019-03-29T12:43:39.865Z,16.20
2019-03-29T12:46:08.362Z,16.00
2019-03-29T12:48:36.773Z,16.00
2019-03-29T12:51:05.218Z,16.20
2019-03-29T12:53:33.671Z,16.20
2019-03-29T12:56:02.114Z,16.20
2019-03-29T12:58:30.533Z,16.10
2019-03-29T13:01:00.486Z,16.10
2019-03-29T13:03:28.977Z,15.80
2019-03-29T13:05:57.379Z,15.70
2019-03-29T13:08:25.812Z,15.70
2019-03-29T13:10:58.800Z,15.70
2019-03-29T13:13:27.671Z,15.80
2019-03-29T13:15:56.103Z,15.80
2019-03-29T13:18:24.698Z,15.90
2019-03-29T13:20:53.122Z,15.90
2019-03-29T13:23:21.564Z,15.80
2019-03-29T13:25:49.982Z,15.90
2019-03-29T13:28:18.459Z,15.90
2019-03-29T13:30:47.500Z,15.80
2019-03-29T13:33:15.915Z,15.70
2019-03-29T13:35:44.745Z,15.70
2019-03-29T13:38:13.192Z,15.70
2019-03-29T13:40:41.638Z,15.50
2019-03-29T13:43:10.115Z,15.60
2019-03-29T13:45:38.527Z,15.60
2019-03-29T13:48:07.382Z,15.60
2019-03-29T13:50:35.819Z,15.60
2019-03-29T13:53:04.236Z,15.50
2019-03-29T13:55:32.654Z,15.50
2019-03-29T13:58:01.055Z,15.60
2019-03-29T14:00:29.470Z,15.60
2019-03-29T14:02:57.869Z,15.60
2019-03-29T14:05:26.451Z,15.60
2019-03-29T14:07:54.851Z,15.50
2019-03-29T14:10:23.282Z,15.40
2019-03-29T14:12:51.701Z,15.40
2019-03-29T14:15:20.099Z,15.40
2019-03-29T14:17:48.542Z,15.50
2019-03-29T14:20:21.490Z,15.40
2019-03-29T14:22:50.189Z,15.30
2019-03-29T14:25:18.597Z,15.40
2019-03-29T14:27:47.007Z,15.40
2019-03-29T14:30:15.682Z,15.40
2019-03-29T14:32:44.111Z,15.30
2019-03-29T14:35:12.747Z,15.10
2019-03-29T14:37:41.190Z,14.90
2019-03-29T14:40:09.954Z,14.90
2019-03-29T14:42:38.388Z,15.10
2019-03-29T14:45:08.716Z,15.10
2019-03-29T14:47:43.492Z,15.20
2019-03-29T14:50:08.520Z,15.20
2019-03-29T14:52:37.086Z,15.10
2019-03-29T14:55:06.729Z,15.10
2019-03-29T14:57:35.150Z,15.20
2019-03-29T15:00:06.244Z,15.30
2019-03-29T15:02:34.685Z,15.30
2019-03-29T15:05:04.833Z,15.30
2019-03-29T15:07:33.271Z,15.20
2019-03-29T15:10:02.712Z,15.20
2019-03-29T15:12:31.127Z,15.10
2019-03-29T15:15:06.023Z,15.10
2019-03-29T15:17:29.683Z,15.10
2019-03-29T15:19:58.108Z,15.10
2019-03-29T15:22:26.511Z,15.00
2019-03-29T15:24:55.055Z,14.90
2019-03-29T15:27:23.496Z,14.80
2019-03-29T15:29:51.926Z,14.80
2019-03-29T15:32:20.351Z,14.80
2019-03-29T15:34:48.798Z,15.10
2019-03-29T15:37:17.218Z,15.10
2019-03-29T15:39:45.628Z,15.10
2019-03-29T15:42:14.091Z,15.20
2019-03-29T15:44:42.526Z,15.30
2019-03-29T15:47:11.012Z,15.30
2019-03-29T15:49:39.422Z,15.20
2019-03-29T15:52:07.842Z,15.20
2019-03-29T15:54:36.286Z,15.10
2019-03-29T15:57:04.716Z,15.20
2019-03-29T15:59:33.136Z,15.20
2019-03-29T16:02:01.563Z,15.30
2019-03-29T16:04:29.987Z,15.30
2019-03-29T16:06:58.454Z,15.10
2019-03-29T16:09:26.931Z,15.20
2019-03-29T16:11:55.388Z,15.10
2019-03-29T16:14:23.804Z,15.20
2019-03-29T16:16:52.630Z,15.10
2019-03-29T16:19:21.130Z,15.10
2019-03-29T16:21:49.768Z,14.80
2019-03-29T16:24:18.176Z,14.80
2019-03-29T16:26:46.615Z,14.60
2019-03-29T16:29:17.944Z,14.70
2019-03-29T16:31:46.382Z,14.70
2019-03-29T16:34:14.814Z,14.70
2019-03-29T16:36:43.229Z,14.60
2019-03-29T16:39:11.658Z,14.60
2019-03-29T16:41:40.078Z,14.50
2019-03-29T16:44:08.918Z,14.40
2019-03-29T16:46:37.494Z,14.50
2019-03-29T16:49:05.973Z,14.50
2019-03-29T16:51:34.374Z,14.50
2019-03-29T16:54:05.543Z,14.50
2019-03-29T16:56:32.978Z,14.40
2019-03-29T16:59:01.404Z,14.40
2019-03-29T17:01:32.601Z,14.40
2019-03-29T17:04:01.014Z,14.30
2019-03-29T17:06:29.421Z,14.30
2019-03-29T17:08:57.855Z,14.40
2019-03-29T17:11:26.287Z,14.40
2019-03-29T17:13:54.761Z,14.40
2019-03-29T17:16:30.212Z,14.50
2019-03-29T17:18:53.402Z,14.60
2019-03-29T17:21:21.961Z,14.60
2019-03-29T17:23:52.670Z,14.50
2019-03-29T17:26:20.557Z,14.40
2019-03-29T17:28:49.088Z,14.30
2019-03-29T17:31:18.295Z,14.30
2019-03-29T17:33:46.726Z,14.30
2019-03-29T17:36:15.167Z,14.20
2019-03-29T17:38:43.586Z,14.20
2019-03-29T17:41:12.030Z,14.10
2019-03-29T17:43:42.868Z,14.00
2019-03-29T17:46:16.437Z,13.80
2019-03-29T17:48:41.395Z,13.70
2019-03-29T17:51:09.824Z,13.60
2019-03-29T17:53:38.311Z,13.60
2019-03-29T17:56:06.735Z,13.50
2019-03-29T17:58:35.172Z,13.40
2019-03-29T18:01:03.627Z,13.40
2019-03-29T18:03:32.095Z,13.30
2019-03-29T18:06:00.520Z,13.20
2019-03-29T18:08:28.911Z,13.00
2019-03-29T18:10:57.801Z,12.90
2019-03-29T18:13:26.213Z,12.90
2019-03-29T18:16:00.432Z,12.80
2019-03-29T18:18:28.835Z,12.70
2019-03-29T18:21:00.372Z,12.60
2019-03-29T18:23:28.818Z,12.60
2019-03-29T18:25:57.244Z,12.50
2019-03-29T18:28:25.676Z,12.40
2019-03-29T18:30:57.919Z,12.20
2019-03-29T18:33:27.030Z,12.20
2019-03-29T18:35:55.542Z,12.00
2019-03-29T18:38:24.597Z,11.90
2019-03-29T18:40:54.383Z,11.80
2019-03-29T18:43:22.817Z,11.80
2019-03-29T18:45:51.243Z,11.80
2019-03-29T18:48:19.676Z,11.60
2019-03-29T18:51:00.158Z,11.50
2019-03-29T18:53:28.590Z,11.40
2019-03-29T18:55:57.007Z,11.30
2019-03-29T18:58:25.431Z,11.30
2019-03-29T19:00:53.852Z,11.10
2019-03-29T19:03:22.333Z,11.10
2019-03-29T19:05:50.736Z,11.00
2019-03-29T19:08:19.155Z,10.90
2019-03-29T19:10:59.368Z,10.90
2019-03-29T19:13:27.815Z,10.90
2019-03-29T19:15:56.239Z,10.80
2019-03-29T19:18:24.662Z,10.70
2019-03-29T19:20:53.102Z,10.70
2019-03-29T19:23:21.504Z,10.60
2019-03-29T19:25:50.082Z,10.50
2019-03-29T19:28:18.518Z,10.50
2019-03-29T19:33:24.603Z,10.40
2019-03-29T19:35:53.031Z,10.50
2019-03-29T19:38:21.477Z,10.40
2019-03-29T19:40:49.906Z,10.40
2019-03-29T19:43:18.399Z,10.30
2019-03-29T19:45:46.804Z,10.30
2019-03-29T19:48:15.241Z,10.30
2019-03-29T19:50:43.651Z,10.30
2019-03-29T19:53:12.120Z,10.30
2019-03-29T19:55:40.664Z,10.20
2019-03-29T19:58:09.089Z,10.10
2019-03-29T20:00:40.217Z,10.00
2019-03-29T20:03:09.006Z,10.00
2019-03-29T20:05:37.566Z,9.90
2019-03-29T20:08:05.967Z,9.90
2019-03-29T20:10:34.433Z,9.80
2019-03-29T20:13:02.994Z,9.80
2019-03-29T20:15:31.391Z,9.70
2019-03-29T20:18:00.218Z,9.70
2019-03-29T20:20:28.815Z,9.70
2019-03-29T20:22:58.164Z,9.70
2019-03-29T20:25:26.666Z,9.80
2019-03-29T20:27:58.097Z,9.70
2019-03-29T20:30:25.986Z,9.60
2019-03-29T20:32:54.579Z,9.50
2019-03-29T20:35:23.008Z,9.40
2019-03-29T20:37:51.481Z,9.40
2019-03-29T20:40:19.950Z,9.40
2019-03-29T20:42:48.352Z,9.40
2019-03-29T20:45:16.935Z,9.40
2019-03-29T20:47:45.399Z,9.30
2019-03-29T20:50:14.284Z,9.20
2019-03-29T20:52:42.682Z,9.20
2019-03-29T20:55:11.107Z,9.20
2019-03-29T20:57:39.958Z,9.10
2019-03-29T21:00:10.001Z,9.00
2019-03-29T21:02:38.494Z,9.00
2019-03-29T21:05:07.153Z,8.90
2019-03-29T21:07:35.722Z,8.90
2019-03-29T21:10:06.795Z,8.90
2019-03-29T21:12:36.010Z,8.80
2019-03-29T21:15:05.760Z,8.80
2019-03-29T21:17:34.179Z,8.80
2019-03-29T21:20:02.775Z,8.80
2019-03-29T21:22:31.175Z,8.80
2019-03-29T21:25:06.799Z,8.80
2019-03-29T21:27:35.273Z,8.80
2019-03-29T21:30:04.567Z,8.80
2019-03-29T21:32:32.964Z,8.70
2019-03-29T21:35:01.366Z,8.70
2019-03-29T21:37:29.772Z,8.70
2019-03-29T21:39:58.227Z,8.70
2019-03-29T21:42:26.663Z,8.70
2019-03-29T21:44:55.087Z,8.60
2019-03-29T21:47:23.490Z,8.70
2019-03-29T21:49:51.930Z,8.60
2019-03-29T21:52:20.526Z,8.60
2019-03-29T21:54:48.938Z,8.60
2019-03-29T21:57:17.382Z,8.60
2019-03-29T21:59:45.788Z,8.60
2019-03-29T22:02:14.210Z,8.50
2019-03-29T22:04:45.267Z,8.40
2019-03-29T22:07:13.882Z,8.30
2019-03-29T22:09:42.319Z,8.30
2019-03-29T22:12:10.757Z,8.20
2019-03-29T22:14:39.169Z,8.20
2019-03-29T22:17:07.575Z,8.10
2019-03-29T22:19:36.157Z,8.10
2019-03-29T22:22:04.586Z,8.10
2019-03-29T22:24:33.027Z,8.10
2019-03-29T22:27:01.511Z,8.00
2019-03-29T22:29:29.924Z,8.00
2019-03-29T22:31:58.385Z,8.00
2019-03-29T22:34:26.842Z,7.90
2019-03-29T22:36:55.258Z,7.90
2019-03-29T22:39:23.662Z,7.90
2019-03-29T22:41:52.101Z,7.90
2019-03-29T22:44:20.491Z,7.80
2019-03-29T22:46:48.898Z,7.80
2019-03-29T22:49:17.302Z,7.70
2019-03-29T22:51:45.715Z,7.70
2019-03-29T22:54:14.171Z,7.70
2019-03-29T22:56:42.590Z,7.60
2019-03-29T22:59:11.044Z,7.60
2019-03-29T23:01:42.543Z,7.50
2019-03-29T23:04:11.412Z,7.50
2019-03-29T23:06:39.863Z,7.50
2019-03-29T23:09:11.657Z,7.50
2019-03-29T23:11:38.961Z,7.50
2019-03-29T23:14:07.438Z,7.50
2019-03-29T23:16:35.921Z,7.40
2019-03-29T23:19:06.619Z,7.40
2019-03-29T23:21:34.551Z,7.40
2019-03-29T23:24:02.979Z,7.40
2019-03-29T23:26:31.410Z,7.30
2019-03-29T23:28:59.883Z,7.30
2019-03-29T23:31:28.316Z,7.30
2019-03-29T23:33:56.711Z,7.30
2019-03-29T23:36:25.146Z,7.20
2019-03-29T23:38:53.576Z,7.30
2019-03-29T23:41:22.238Z,7.20
2019-03-29T23:43:50.680Z,7.10
2019-03-29T23:46:19.092Z,7.20
2019-03-29T23:48:47.595Z,7.30
2019-03-29T23:51:16.527Z,7.30
2019-03-29T23:53:44.936Z,7.40
2019-03-29T23:56:13.353Z,7.60
2019-03-29T23:58:41.762Z,7.70
